Metaline, WA

4:29 AM PST on January 25, 2015 (GMT -0800)
Fruitvale, BC | Change Station
CLOSE
Current Station
Personal Weather Station
Location: Fruitvale, BRITISH COLUMBIA
Elevation: 2005 ft
Nearby Weather Stations
Active Advisory: Dense Fog Advisory Active Notice: Record Report

Elev 2005 ft 49.11 °N, 117.55 °W | Updated 0 second ago

Fog
Fog
34.0 °F
Feels Like 34 °F
N
0.0
Wind Variable Wind from North
Gusts 0.0 mph

Today
High -- | Low -- °F
--% Chance of Precip.
Yesterday
High -- | Low -- °F
Precip. -- in
7:28 AM 4:35 PM
Waxing Crescent, 32% visible
Pressure 30.16 in
Visibility 0.5 miles
Clouds Overcast 300 ft
Windchill 34 °F
Dew Point 34 °F
Humidity 98%
Rainfall 0.00 in
Snow Depth Not available.
UV 0.0 out of 12
Pollen .40 out of 12
Air Quality Not available.
Flu Activity Not available.
METAR K65S 251215Z AUTO 00000KT 1/2SM FG OVC003 03/03 A3016 RMK AO2

More Conditions Fewer Conditions

Pressure 30.16 in
Visibility 0.5 miles
Clouds Overcast 300 ft
Windchill 34 °F
Dew Point 34 °F
Humidity 98%
Rainfall 0.00 in
Snow Depth Not available.
UV 0.0 out of 12
Pollen .40 out of 12
Air Quality Not available.
Flu Activity Not available.
METAR K65S 251215Z AUTO 00000KT 1/2SM FG OVC003 03/03 A3016 RMK AO2

More Conditions Fewer Conditions

10-Day Weather Forecast

Almanac

Astronomy

Jan. 25, 2015 Rise Set
Actual Time
Civil Twilight
Nautical Twilight
Astronomical Twilight
Moon
Length of Visible Light
Length of Day
Tomorrow will be .
, % of the Moon is Illuminated

Today's Extremes

State Highs State Lows

Community

WunderPhotos

Upload Photos

1,789,873 photos uploaded!

WunderBlogs® & News

Nearby

Air Quality

  Air Quality AQ Index Pollutant
Not available.

Snow Depth

Station Depth Elevation

Earthquake Activity

City Distance Mag. Time & Date
Minimum magnitude displayed is 2.5.

Coastal Water Temperatures

Place Temperature

Nearby Weather Stations